Terminal Aerodrome Forecast
Issued by NWS

Home | Current Version | Previous Version | Text Only | Print | Product List | Glossary On
Versions: 1 2 3 4 5 6 7 8 9 10 11 12 13 14 15 16 17 18 19 20 21 22 23 24 25 26
000
FTUS44 KMAF 292320
TAFINK
TAF
KINK 292320Z 3000/3024 33014G20KT P6SM BKN050
     FM300100 29007KT P6SM SCT050 BKN250
     FM301500 21011KT P6SM SCT250
     FM301800 25015G23KT P6SM SCT250
      AMD NOT SKED=

USA.gov is the U.S. government's official web portal to all federal, state and local government web resources and services.